Time;durP1;ratioP1;P1;durP2;ratioP2;P2;SDS_P1;SDS_P2;PMS_P1;PMS_P2;Temp;Humidity;BMP_temperature;BMP_pressure;BME280_temperature;BME280_humidity;BME280_pressure;Samples;Min_cycle;Max_cycle;Signal;HPM_P1;HPM_P2
2022/10/30 00:00:51;;;;;;;4.45;2.53;;;17.30;79.60;;;;;;4937225;28;20241;-80
2022/10/30 00:03:17;;;;;;;5.07;2.60;;;17.30;79.70;;;;;;4955587;28;20085;-80
2022/10/30 00:05:48;;;;;;;5.90;2.72;;;17.30;79.80;;;;;;4935755;28;20029;-80
2022/10/30 00:08:16;;;;;;;7.20;2.80;;;17.20;80.20;;;;;;4989782;28;20026;-80
2022/10/30 00:10:43;;;;;;;4.90;2.70;;;17.20;80.10;;;;;;4963563;28;20438;-80
2022/10/30 00:13:09;;;;;;;5.97;2.60;;;17.10;80.00;;;;;;4969313;28;20100;-80
2022/10/30 00:15:35;;;;;;;5.78;2.15;;;17.10;80.20;;;;;;4945801;28;20082;-80
2022/10/30 00:18:01;;;;;;;3.67;2.35;;;17.00;80.20;;;;;;4970023;28;20050;-80
2022/10/30 00:20:27;;;;;;;4.50;2.47;;;17.00;80.20;;;;;;4961588;28;20034;-80
2022/10/30 00:22:52;;;;;;;5.20;2.55;;;16.90;80.30;;;;;;4951982;28;20252;-80
2022/10/30 00:25:18;;;;;;;5.83;2.60;;;17.00;80.50;;;;;;4953647;28;20907;-80
2022/10/30 00:27:44;;;;;;;4.55;2.22;;;16.90;80.50;;;;;;4955740;28;20029;-80
2022/10/30 00:30:10;;;;;;;4.70;2.50;;;16.90;80.60;;;;;;4950227;28;20436;-80
2022/10/30 00:32:36;;;;;;;3.63;2.47;;;16.80;80.60;;;;;;4977305;28;20037;-80
2022/10/30 00:35:01;;;;;;;4.93;2.33;;;16.80;80.60;;;;;;4953136;28;20576;-80
2022/10/30 00:37:27;;;;;;;4.43;2.25;;;16.80;80.80;;;;;;4971889;28;20042;-80
2022/10/30 00:39:53;;;;;;;5.03;2.47;;;16.70;80.80;;;;;;4949890;28;20263;-80
2022/10/30 00:42:18;;;;;;;5.82;2.40;;;16.70;80.80;;;;;;4962370;28;20314;-80
2022/10/30 00:44:44;;;;;;;7.03;2.67;;;16.70;80.80;;;;;;4948168;28;20026;-80
2022/10/30 00:47:41;;;;;;;5.60;2.30;;;16.70;80.90;;;;;;4973040;28;20022;-80
2022/10/30 00:50:12;;;;;;;7.17;2.40;;;16.60;81.90;;;;;;4952630;28;20113;-80
2022/10/30 00:52:49;;;;;;;4.55;2.50;;;16.60;81.10;;;;;;4962348;28;20414;-80
2022/10/30 00:55:20;;;;;;;5.07;2.30;;;16.60;81.60;;;;;;4939338;28;20046;-80
2022/10/30 00:57:47;;;;;;;4.03;2.30;;;16.60;81.30;;;;;;4967835;28;20117;-80
2022/10/30 01:00:14;;;;;;;5.57;2.35;;;16.50;81.10;;;;;;4950578;28;20045;-80
2022/10/30 01:02:41;;;;;;;3.67;2.27;;;16.50;81.30;;;;;;4959894;28;20084;-80
2022/10/30 01:05:08;;;;;;;3.90;2.20;;;16.40;81.30;;;;;;4965039;28;20034;-80
2022/10/30 01:07:34;;;;;;;5.18;2.45;;;16.40;81.30;;;;;;4966025;28;20117;-80
2022/10/30 01:09:59;;;;;;;6.27;2.50;;;16.40;81.40;;;;;;4929640;28;20343;-80
2022/10/30 01:12:25;;;;;;;5.45;2.53;;;16.40;81.40;;;;;;4981496;28;20354;-80
2022/10/30 01:14:57;;;;;;;6.97;2.55;;;16.30;81.50;;;;;;4971252;28;20315;-80
2022/10/30 01:17:37;;;;;;;5.47;2.30;;;16.30;81.70;;;;;;4940551;28;20502;-80
2022/10/30 01:20:27;;;;;;;3.67;2.22;;;16.30;82.20;;;;;;4961062;28;20427;-80
2022/10/30 01:23:01;;;;;;;5.13;2.20;;;16.30;82.00;;;;;;4981909;28;20176;-80
2022/10/30 01:25:32;;;;;;;4.68;2.08;;;16.20;81.50;;;;;;4963798;28;20038;-80
2022/10/30 01:28:22;;;;;;;4.65;2.25;;;16.20;81.60;;;;;;4972605;28;20152;-80
2022/10/30 01:30:54;;;;;;;4.67;2.30;;;16.20;82.40;;;;;;4953595;28;20093;-80
2022/10/30 01:33:25;;;;;;;3.92;2.25;;;16.10;82.00;;;;;;4975884;28;20026;-80
2022/10/30 01:36:15;;;;;;;5.43;2.35;;;16.10;81.90;;;;;;4964816;28;20031;-80
2022/10/30 01:38:52;;;;;;;4.60;2.17;;;16.00;82.70;;;;;;4955197;28;20035;-80
2022/10/30 01:41:18;;;;;;;4.88;2.20;;;16.00;82.50;;;;;;4944719;28;20502;-80
2022/10/30 01:43:46;;;;;;;4.30;2.17;;;15.90;81.90;;;;;;4969204;28;20023;-80
2022/10/30 01:46:37;;;;;;;5.85;2.17;;;15.90;82.10;;;;;;4974560;28;20018;-80
2022/10/30 01:49:19;;;;;;;4.07;2.05;;;15.90;83.10;;;;;;4960475;28;20168;-80
2022/10/30 01:51:56;;;;;;;5.90;2.30;;;15.90;82.80;;;;;;4971641;28;20047;-80
2022/10/30 01:54:44;;;;;;;4.72;2.17;;;15.80;83.00;;;;;;4939756;28;20038;-80
2022/10/30 01:57:24;;;;;;;4.40;2.00;;;15.80;82.60;;;;;;4944153;28;20242;-80
2022/10/30 02:00:02;;;;;;;4.25;2.20;;;15.80;83.10;;;;;;4967279;28;20302;-80
2022/10/30 02:02:28;;;;;;;5.18;2.10;;;15.70;83.00;;;;;;4972836;28;20065;-80
2022/10/30 02:04:54;;;;;;;4.43;2.20;;;15.70;82.60;;;;;;4932784;28;20275;-80
2022/10/30 02:07:20;;;;;;;3.30;2.00;;;15.70;82.60;;;;;;4946425;28;20054;-80
2022/10/30 02:09:46;;;;;;;3.95;2.20;;;15.70;82.70;;;;;;4961192;28;20032;-80
2022/10/30 02:12:12;;;;;;;5.73;2.20;;;15.70;82.70;;;;;;4953842;28;20026;-80
2022/10/30 02:14:42;;;;;;;6.30;2.47;;;15.70;82.80;;;;;;4966010;28;20031;-80
2022/10/30 02:17:10;;;;;;;4.22;2.20;;;15.60;83.00;;;;;;4968373;28;20062;-80
2022/10/30 02:19:36;;;;;;;5.60;2.30;;;15.60;83.00;;;;;;4944385;28;20041;-80
2022/10/30 02:22:02;;;;;;;4.40;2.20;;;15.60;83.00;;;;;;4968815;28;20503;-81
2022/10/30 02:24:29;;;;;;;4.90;2.20;;;15.60;83.00;;;;;;4959142;28;20050;-80
2022/10/30 02:26:55;;;;;;;3.65;2.10;;;15.50;83.10;;;;;;4960973;28;20053;-80
2022/10/30 02:29:20;;;;;;;6.07;2.17;;;15.60;83.20;;;;;;4947064;28;20015;-80
2022/10/30 02:31:47;;;;;;;5.17;2.33;;;15.50;83.20;;;;;;4974021;28;20778;-80
2022/10/30 02:34:13;;;;;;;5.13;2.20;;;15.50;83.30;;;;;;4948640;28;20117;-80
2022/10/30 02:36:38;;;;;;;4.40;2.22;;;15.50;83.40;;;;;;4948358;28;20157;-80
2022/10/30 02:39:05;;;;;;;4.13;2.17;;;15.50;83.40;;;;;;4966069;28;20030;-80
2022/10/30 02:41:31;;;;;;;5.10;2.33;;;15.50;83.50;;;;;;4963257;28;20156;-80
2022/10/30 02:43:57;;;;;;;6.05;2.08;;;15.40;83.60;;;;;;4959664;28;20019;-80
2022/10/30 02:46:23;;;;;;;4.57;2.40;;;15.40;83.60;;;;;;4952068;28;20026;-80
2022/10/30 02:48:49;;;;;;;4.25;2.25;;;15.40;83.70;;;;;;4930121;28;20081;-80
2022/10/30 02:51:14;;;;;;;4.23;2.20;;;15.40;83.70;;;;;;4962383;28;20117;-81
2022/10/30 02:53:40;;;;;;;5.50;2.50;;;15.40;83.80;;;;;;4962259;28;20542;-81
2022/10/30 02:56:08;;;;;;;4.45;2.10;;;15.40;83.90;;;;;;4963866;28;20022;-80
2022/10/30 02:58:34;;;;;;;3.60;2.17;;;15.30;84.00;;;;;;4953789;28;21075;-80
2022/10/30 03:01:11;;;;;;;4.68;2.20;;;15.30;84.00;;;;;;4963556;28;20019;-81
2022/10/30 03:03:38;;;;;;;4.65;2.08;;;15.30;84.60;;;;;;4960523;28;20097;-80
2022/10/30 03:06:05;;;;;;;5.30;2.30;;;15.30;84.00;;;;;;4954018;28;20037;-81
2022/10/30 03:08:31;;;;;;;4.75;2.10;;;15.30;84.10;;;;;;4950132;28;20260;-81
2022/10/30 03:11:09;;;;;;;5.63;2.28;;;15.30;84.00;;;;;;4965413;28;20364;-81
2022/10/30 03:13:35;;;;;;;3.65;1.98;;;15.30;84.70;;;;;;4950029;28;20278;-81
2022/10/30 03:16:03;;;;;;;5.57;2.10;;;15.30;84.20;;;;;;4965120;28;20153;-81
2022/10/30 03:18:28;;;;;;;3.50;1.90;;;15.20;84.10;;;;;;4970858;28;20498;-80
2022/10/30 03:20:59;;;;;;;3.65;2.10;;;15.20;84.10;;;;;;4950979;28;20086;-80
2022/10/30 03:23:26;;;;;;;5.13;1.95;;;15.20;84.30;;;;;;4974814;28;20049;-81
2022/10/30 03:25:56;;;;;;;4.17;2.20;;;15.20;84.30;;;;;;4948348;28;20488;-81
2022/10/30 03:28:23;;;;;;;3.60;2.28;;;15.10;84.50;;;;;;4942851;28;20548;-80
2022/10/30 03:30:50;;;;;;;5.03;2.30;;;15.10;84.40;;;;;;4968977;28;20029;-80
2022/10/30 03:33:15;;;;;;;3.58;1.90;;;15.10;84.40;;;;;;4971644;28;20106;-81
2022/10/30 03:35:44;;;;;;;4.17;2.20;;;15.10;84.50;;;;;;4952928;28;20293;-80
2022/10/30 03:38:11;;;;;;;6.10;2.00;;;15.10;84.80;;;;;;4959997;28;20430;-81
2022/10/30 03:40:37;;;;;;;3.45;1.65;;;15.10;84.70;;;;;;4957400;28;20350;-80
2022/10/30 03:43:03;;;;;;;6.97;2.03;;;15.10;84.70;;;;;;4958138;28;20059;-81
2022/10/30 03:45:28;;;;;;;4.55;2.10;;;15.00;84.80;;;;;;4967697;28;20094;-81
2022/10/30 03:47:54;;;;;;;4.23;1.90;;;15.00;84.90;;;;;;4963609;28;20120;-81
2022/10/30 03:50:19;;;;;;;3.85;2.00;;;15.10;85.00;;;;;;4943684;28;20057;-81
2022/10/30 03:52:45;;;;;;;3.73;1.97;;;15.00;85.00;;;;;;4976674;28;20030;-81
2022/10/30 03:55:10;;;;;;;3.92;2.20;;;15.00;85.10;;;;;;4943807;28;20027;-81
2022/10/30 03:57:37;;;;;;;3.87;2.23;;;15.00;85.20;;;;;;4959521;28;20337;-81
2022/10/30 04:00:04;;;;;;;4.68;1.80;;;15.00;85.20;;;;;;4965510;28;20049;-81
2022/10/30 04:02:30;;;;;;;5.72;2.00;;;15.00;85.20;;;;;;4956539;28;20400;-81
2022/10/30 04:04:55;;;;;;;5.27;1.87;;;15.00;85.20;;;;;;4973123;28;20029;-81
2022/10/30 04:07:21;;;;;;;3.70;1.97;;;15.00;85.30;;;;;;4951188;28;20122;-81
2022/10/30 04:09:46;;;;;;;3.28;1.77;;;15.00;85.40;;;;;;4962096;28;20015;-81
2022/10/30 04:12:12;;;;;;;3.93;2.30;;;15.00;85.40;;;;;;4963456;28;20512;-81
2022/10/30 04:14:38;;;;;;;4.13;2.17;;;15.00;85.40;;;;;;4964001;28;20038;-80
2022/10/30 04:17:05;;;;;;;4.40;2.03;;;15.00;85.50;;;;;;4976281;28;20026;-81
2022/10/30 04:19:30;;;;;;;4.10;1.90;;;15.00;85.50;;;;;;4963232;28;20184;-81
2022/10/30 04:21:56;;;;;;;3.23;1.90;;;14.90;85.50;;;;;;4953241;28;20023;-80
2022/10/30 04:24:22;;;;;;;4.43;2.13;;;14.90;85.70;;;;;;4949515;28;20042;-81
2022/10/30 04:26:48;;;;;;;3.60;1.93;;;15.00;85.80;;;;;;4979140;28;20316;-81
2022/10/30 04:29:13;;;;;;;3.70;1.85;;;15.00;86.70;;;;;;4956550;28;20485;-81
2022/10/30 04:31:39;;;;;;;3.45;2.05;;;14.90;85.90;;;;;;4945610;28;20109;-81
2022/10/30 04:34:04;;;;;;;3.17;1.90;;;14.90;86.10;;;;;;4942351;28;20398;-81
2022/10/30 04:36:32;;;;;;;6.33;1.83;;;15.00;86.20;;;;;;4969755;28;20053;-81
2022/10/30 04:38:59;;;;;;;5.38;2.10;;;14.90;86.20;;;;;;4950565;28;20374;-81
2022/10/30 04:41:25;;;;;;;4.45;2.00;;;15.00;86.40;;;;;;4961008;28;20034;-81
2022/10/30 04:43:51;;;;;;;4.83;2.00;;;15.00;86.40;;;;;;4971873;28;20049;-81
2022/10/30 04:46:17;;;;;;;4.05;1.92;;;14.90;86.30;;;;;;4951762;28;20053;-81
2022/10/30 04:48:44;;;;;;;4.38;2.00;;;14.90;86.30;;;;;;4977537;28;20512;-80
2022/10/30 04:51:10;;;;;;;4.07;1.70;;;15.00;86.40;;;;;;4964594;28;20026;-81
2022/10/30 04:53:37;;;;;;;4.25;1.95;;;15.00;86.30;;;;;;4950092;28;20730;-81
2022/10/30 04:56:04;;;;;;;4.93;2.00;;;14.90;86.40;;;;;;4923771;28;20468;-81
2022/10/30 04:58:30;;;;;;;4.45;1.83;;;14.90;86.40;;;;;;4960061;28;20014;-80
2022/10/30 05:01:01;;;;;;;4.15;1.92;;;14.90;86.40;;;;;;4960772;28;20416;-81
2022/10/30 05:03:26;;;;;;;3.45;1.95;;;14.80;86.50;;;;;;4957868;28;20022;-81
2022/10/30 05:06:01;;;;;;;3.97;2.03;;;14.90;86.20;;;;;;4966408;28;20363;-81
2022/10/30 05:08:27;;;;;;;3.58;2.00;;;14.90;86.70;;;;;;4962456;28;20247;-81
2022/10/30 05:10:53;;;;;;;4.35;1.85;;;14.80;86.20;;;;;;4937250;28;20030;-81
2022/10/30 05:13:19;;;;;;;4.03;2.10;;;14.80;86.30;;;;;;4971179;28;20216;-81
2022/10/30 05:15:44;;;;;;;4.15;2.25;;;14.80;86.30;;;;;;4955477;28;20034;-81
2022/10/30 05:18:10;;;;;;;2.37;1.63;;;14.70;86.30;;;;;;4957273;28;20046;-81
2022/10/30 05:20:36;;;;;;;3.35;1.83;;;14.70;86.40;;;;;;4949003;28;20032;-81
2022/10/30 05:23:01;;;;;;;3.73;1.70;;;14.70;86.40;;;;;;4968886;28;20030;-81
2022/10/30 05:25:27;;;;;;;5.13;2.20;;;14.70;86.40;;;;;;4944284;28;20069;-81
2022/10/30 05:27:58;;;;;;;4.90;2.15;;;14.60;86.40;;;;;;4975175;28;20406;-81
2022/10/30 05:30:24;;;;;;;4.50;2.00;;;14.60;86.60;;;;;;4935228;28;20054;-81
2022/10/30 05:32:50;;;;;;;3.90;1.95;;;14.60;86.50;;;;;;4965295;28;20208;-81
2022/10/30 05:35:15;;;;;;;3.67;1.92;;;14.60;86.60;;;;;;4935242;28;20030;-81
2022/10/30 05:37:41;;;;;;;3.43;1.80;;;14.50;86.50;;;;;;4964122;28;20038;-81
2022/10/30 05:40:07;;;;;;;4.00;1.90;;;14.50;86.50;;;;;;4930217;28;20529;-81
2022/10/30 05:42:32;;;;;;;3.28;1.70;;;14.50;86.60;;;;;;4975036;28;20031;-81
2022/10/30 05:44:58;;;;;;;4.40;1.80;;;14.50;86.50;;;;;;4954372;28;20022;-81
2022/10/30 05:47:24;;;;;;;4.00;1.87;;;14.50;86.50;;;;;;4959189;28;20297;-81
2022/10/30 05:49:49;;;;;;;3.10;1.80;;;14.40;86.50;;;;;;4954251;28;21217;-81
2022/10/30 05:52:15;;;;;;;3.90;1.98;;;14.40;86.50;;;;;;4960855;28;20043;-81
2022/10/30 05:54:40;;;;;;;4.13;1.80;;;14.40;86.60;;;;;;4967606;28;20307;-81
2022/10/30 05:57:06;;;;;;;3.77;1.63;;;14.30;86.60;;;;;;4949093;28;20029;-81
2022/10/30 05:59:31;;;;;;;3.17;1.70;;;14.30;86.60;;;;;;4964425;28;20359;-81
2022/10/30 06:01:57;;;;;;;4.63;1.97;;;14.30;86.60;;;;;;4955396;28;20026;-81
2022/10/30 06:04:23;;;;;;;2.75;1.75;;;14.30;86.70;;;;;;4964473;28;20018;-81
2022/10/30 06:06:49;;;;;;;4.03;2.00;;;14.20;86.60;;;;;;4950404;28;20027;-81
2022/10/30 06:09:14;;;;;;;4.80;1.80;;;14.20;86.70;;;;;;4939390;28;20200;-81
2022/10/30 06:11:40;;;;;;;3.67;1.73;;;14.20;86.80;;;;;;4930661;28;20014;-81
2022/10/30 06:14:05;;;;;;;3.65;1.80;;;14.10;86.80;;;;;;4933695;28;20041;-81
2022/10/30 06:16:31;;;;;;;4.20;1.93;;;14.10;86.90;;;;;;4944122;28;20582;-81
2022/10/30 06:18:56;;;;;;;5.53;1.95;;;14.10;87.00;;;;;;4967655;28;20033;-81
2022/10/30 06:21:22;;;;;;;3.23;1.60;;;14.10;87.10;;;;;;4950070;28;20528;-81
2022/10/30 06:23:48;;;;;;;3.73;2.00;;;14.10;87.20;;;;;;4954349;28;20034;-81
2022/10/30 06:26:14;;;;;;;3.47;1.70;;;14.10;87.30;;;;;;4933173;28;20051;-81
2022/10/30 06:28:39;;;;;;;3.77;1.73;;;14.10;87.40;;;;;;4955476;28;20467;-81
2022/10/30 06:31:05;;;;;;;3.17;1.60;;;14.10;87.40;;;;;;4950124;28;20038;-81
2022/10/30 06:33:30;;;;;;;3.87;1.93;;;14.10;87.50;;;;;;4997278;28;20274;-81
2022/10/30 06:35:56;;;;;;;4.20;1.73;;;14.10;87.50;;;;;;4955097;28;20054;-81
2022/10/30 06:38:22;;;;;;;4.30;1.60;;;14.00;87.60;;;;;;4963231;28;21105;-81
2022/10/30 06:40:48;;;;;;;3.50;1.60;;;14.00;87.60;;;;;;4969497;28;20034;-81
2022/10/30 06:43:14;;;;;;;3.23;1.70;;;14.10;87.70;;;;;;4939363;28;20987;-81
2022/10/30 06:45:39;;;;;;;3.20;1.80;;;14.10;87.80;;;;;;4947336;28;20110;-81
2022/10/30 06:48:05;;;;;;;4.03;1.80;;;14.00;87.90;;;;;;4958794;28;20026;-81
2022/10/30 06:50:31;;;;;;;3.42;1.70;;;14.10;87.90;;;;;;4964929;28;20026;-81
2022/10/30 06:52:56;;;;;;;3.37;2.03;;;14.10;88.10;;;;;;4953082;28;20054;-81
2022/10/30 06:55:22;;;;;;;3.75;2.00;;;14.10;88.20;;;;;;4944422;28;20112;-81
2022/10/30 06:57:55;;;;;;;3.33;1.90;;;14.10;88.30;;;;;;4955101;28;20481;-81
2022/10/30 07:00:20;;;;;;;4.05;1.75;;;14.10;88.70;;;;;;4942234;28;20609;-81
2022/10/30 07:02:59;;;;;;;3.70;1.87;;;14.10;88.40;;;;;;4956209;28;20026;-81
2022/10/30 07:05:25;;;;;;;4.80;1.92;;;14.20;89.10;;;;;;4953315;28;20335;-81
2022/10/30 07:07:51;;;;;;;4.75;2.10;;;14.20;88.60;;;;;;4956760;28;20058;-81
2022/10/30 07:10:17;;;;;;;4.73;2.00;;;14.20;88.70;;;;;;4950982;28;20390;-81
2022/10/30 07:12:52;;;;;;;4.13;2.00;;;14.30;88.90;;;;;;4968125;28;20577;-81
2022/10/30 07:15:17;;;;;;;3.38;1.80;;;14.30;89.40;;;;;;4940760;28;20047;-81
2022/10/30 07:17:50;;;;;;;5.30;2.20;;;14.30;89.20;;;;;;4961466;28;20479;-81
2022/10/30 07:20:15;;;;;;;3.40;1.77;;;14.40;89.50;;;;;;4959939;28;20042;-82
2022/10/30 07:22:41;;;;;;;5.20;2.20;;;14.40;89.70;;;;;;4960012;28;20034;-81
2022/10/30 07:25:06;;;;;;;3.40;1.85;;;14.50;89.90;;;;;;4939282;28;20026;-81
2022/10/30 07:27:39;;;;;;;4.23;2.40;;;14.60;90.10;;;;;;4966213;28;20535;-81
2022/10/30 07:30:06;;;;;;;3.75;2.20;;;14.70;90.20;;;;;;4948659;28;20019;-81
2022/10/30 07:32:31;;;;;;;6.53;2.10;;;14.80;90.30;;;;;;4953148;28;20160;-81
2022/10/30 07:34:57;;;;;;;4.70;2.03;;;14.90;90.40;;;;;;4955915;28;20081;-81
2022/10/30 07:37:23;;;;;;;3.55;2.17;;;15.00;90.50;;;;;;4962804;28;20152;-81
2022/10/30 07:39:48;;;;;;;3.37;1.87;;;15.10;90.40;;;;;;4951521;28;20031;-81
2022/10/30 07:42:14;;;;;;;4.73;2.03;;;15.20;90.40;;;;;;4958847;28;20478;-81
2022/10/30 07:44:39;;;;;;;4.82;2.03;;;15.30;90.40;;;;;;4965074;28;20323;-81
2022/10/30 07:47:05;;;;;;;3.70;2.20;;;15.40;90.40;;;;;;4946345;28;20030;-81
2022/10/30 07:49:31;;;;;;;4.18;2.17;;;15.50;90.40;;;;;;4939615;28;22499;-81
2022/10/30 07:51:56;;;;;;;4.63;2.30;;;15.60;90.40;;;;;;4963461;28;20026;-81
2022/10/30 07:54:22;;;;;;;4.93;2.20;;;15.60;90.50;;;;;;4921991;28;20054;-81
2022/10/30 07:56:47;;;;;;;4.60;2.40;;;15.70;90.50;;;;;;4964311;28;20271;-81
2022/10/30 07:59:13;;;;;;;5.37;2.10;;;15.80;90.60;;;;;;4970836;28;20106;-81
2022/10/30 08:01:39;;;;;;;5.05;2.50;;;15.90;90.80;;;;;;4935787;28;20030;-82
2022/10/30 08:04:04;;;;;;;4.97;2.47;;;16.00;90.90;;;;;;4955425;28;20470;-81
2022/10/30 08:06:30;;;;;;;4.07;2.38;;;16.10;90.90;;;;;;4957611;28;20240;-81
2022/10/30 08:08:56;;;;;;;6.33;2.50;;;16.20;90.90;;;;;;4959674;28;20046;-81
2022/10/30 08:11:21;;;;;;;4.53;2.60;;;16.20;90.90;;;;;;4940414;28;20169;-81
2022/10/30 08:13:47;;;;;;;5.17;2.77;;;16.30;90.90;;;;;;4951522;28;20274;-81
2022/10/30 08:16:13;;;;;;;5.50;2.50;;;16.40;90.90;;;;;;4968808;28;20026;-81
2022/10/30 08:18:41;;;;;;;5.13;2.30;;;16.50;91.00;;;;;;4946942;28;20022;-81
2022/10/30 08:21:07;;;;;;;5.97;2.70;;;16.60;91.50;;;;;;4933580;28;20060;-81
2022/10/30 08:23:32;;;;;;;4.28;2.40;;;16.70;91.30;;;;;;4930972;28;20136;-81
2022/10/30 08:26:01;;;;;;;5.53;2.23;;;16.70;91.40;;;;;;4940215;28;20168;-81
2022/10/30 08:28:27;;;;;;;6.07;2.45;;;16.90;91.60;;;;;;4972335;28;20023;-81
2022/10/30 08:30:53;;;;;;;4.57;2.53;;;17.00;91.60;;;;;;4940839;28;20108;-81
2022/10/30 08:33:19;;;;;;;7.10;2.60;;;17.20;91.80;;;;;;4951983;28;20304;-82
2022/10/30 08:35:53;;;;;;;6.38;2.40;;;17.30;92.00;;;;;;4935218;28;20486;-81
2022/10/30 08:38:19;;;;;;;6.45;2.58;;;17.50;91.90;;;;;;4964961;28;20030;-81
2022/10/30 08:40:45;;;;;;;6.65;2.78;;;17.60;91.80;;;;;;4940463;28;20039;-81
2022/10/30 08:43:10;;;;;;;5.37;2.60;;;17.80;91.80;;;;;;4929708;28;20473;-81
2022/10/30 08:45:36;;;;;;;5.63;2.40;;;17.90;91.80;;;;;;4960284;28;20031;-81
2022/10/30 08:48:04;;;;;;;6.40;2.47;;;18.00;91.70;;;;;;4936969;28;20045;-80
2022/10/30 08:50:31;;;;;;;6.85;2.70;;;18.10;91.50;;;;;;4951909;28;20042;-81
2022/10/30 08:53:02;;;;;;;5.80;2.50;;;18.10;91.30;;;;;;4955235;28;20030;-81
2022/10/30 08:55:28;;;;;;;5.15;2.55;;;18.20;91.20;;;;;;4957378;28;20026;-77
2022/10/30 08:57:54;;;;;;;6.03;2.60;;;18.30;91.20;;;;;;4947711;28;20082;-77
2022/10/30 09:00:19;;;;;;;5.78;2.83;;;18.30;91.10;;;;;;4973162;28;20487;-78
2022/10/30 09:02:45;;;;;;;5.80;2.40;;;18.40;91.00;;;;;;4966353;28;20031;-77
2022/10/30 09:05:10;;;;;;;5.38;2.67;;;18.40;91.00;;;;;;4935886;28;20077;-78
2022/10/30 09:07:36;;;;;;;6.07;2.60;;;18.50;91.10;;;;;;4946844;28;20030;-77
2022/10/30 09:10:04;;;;;;;9.23;2.50;;;18.50;91.10;;;;;;4951460;28;20015;-78
2022/10/30 09:12:29;;;;;;;5.13;2.60;;;18.60;91.60;;;;;;4962923;28;20034;-78
2022/10/30 09:14:55;;;;;;;5.43;2.55;;;18.80;92.90;;;;;;4948182;28;20053;-78
2022/10/30 09:17:21;;;;;;;4.47;2.40;;;19.10;94.10;;;;;;4970367;28;20113;-77
2022/10/30 09:19:46;;;;;;;5.00;2.67;;;19.60;95.20;;;;;;4928518;28;20362;-77
2022/10/30 09:22:12;;;;;;;6.57;3.07;;;20.10;95.80;;;;;;4956708;28;20358;-77
2022/10/30 09:24:38;;;;;;;4.85;2.92;;;20.70;96.00;;;;;;4966417;28;20404;-78
2022/10/30 09:27:05;;;;;;;5.70;2.60;;;21.20;95.90;;;;;;4948376;28;20039;-77
2022/10/30 09:29:31;;;;;;;4.55;2.65;;;21.70;95.60;;;;;;4950050;28;20042;-77
2022/10/30 09:31:57;;;;;;;4.47;2.65;;;22.20;95.50;;;;;;4954678;28;20174;-78
2022/10/30 09:34:23;;;;;;;5.43;2.67;;;22.70;95.10;;;;;;4967298;28;20604;-77
2022/10/30 09:36:48;;;;;;;4.77;2.47;;;23.20;94.80;;;;;;4922648;28;20853;-78
2022/10/30 09:39:14;;;;;;;5.35;2.65;;;23.60;93.90;;;;;;4950063;28;20068;-77
2022/10/30 09:41:55;;;;;;;3.83;2.30;;;23.90;93.10;;;;;;4963907;28;20034;-78
2022/10/30 09:44:35;;;;;;;3.85;2.47;;;24.20;92.50;;;;;;4938607;28;20072;-78
2022/10/30 09:47:12;;;;;;;4.00;2.40;;;24.70;91.40;;;;;;4966007;28;20065;-77
2022/10/30 09:49:58;;;;;;;4.55;2.30;;;25.00;92.50;;;;;;4968765;28;20043;-77
2022/10/30 09:52:28;;;;;;;4.25;2.78;;;25.40;91.00;;;;;;4906935;28;21037;-78
2022/10/30 09:55:00;;;;;;;6.70;2.50;;;25.90;92.40;;;;;;4953401;28;20034;-77
2022/10/30 09:57:57;;;;;;;5.40;2.70;;;26.40;92.00;;;;;;4954035;28;20030;-77
2022/10/30 10:00:32;;;;;;;4.72;2.60;;;26.90;89.10;;;;;;4921557;28;20167;-77
2022/10/30 10:03:35;;;;;;;4.90;2.53;;;27.30;91.70;;;;;;4950832;28;20247;-78
2022/10/30 10:06:02;;;;;;;3.92;2.65;;;27.80;88.40;;;;;;4985840;28;20019;-77
2022/10/30 10:08:39;;;;;;;3.27;2.50;;;28.20;91.00;;;;;;4924822;28;20651;-77
2022/10/30 10:11:29;;;;;;;6.15;2.95;;;28.70;86.30;;;;;;4972916;28;20042;-78
2022/10/30 10:14:13;;;;;;;6.20;2.92;;;29.00;84.90;;;;;;4956152;28;20037;-77
2022/10/30 10:16:42;;;;;;;5.05;2.38;;;29.40;85.40;;;;;;4948857;28;20034;-77
2022/10/30 10:19:34;;;;;;;5.30;2.67;;;29.60;86.40;;;;;;4972964;28;20697;-78
2022/10/30 10:22:02;;;;;;;6.20;2.80;;;29.90;82.60;;;;;;4962656;28;20034;-78
2022/10/30 10:24:30;;;;;;;6.32;2.67;;;29.90;82.60;;;;;;4951085;28;20845;-77
2022/10/30 10:27:15;;;;;;;4.68;2.50;;;30.00;79.50;;;;;;4966950;28;20141;-78
2022/10/30 10:30:02;;;;;;;5.20;2.60;;;30.00;75.90;;;;;;4956914;28;20037;-77
2022/10/30 10:32:27;;;;;;;5.00;2.60;;;29.90;73.60;;;;;;4953153;28;20513;-78
2022/10/30 10:35:00;;;;;;;5.20;2.40;;;29.80;76.90;;;;;;4936263;28;20128;-77
2022/10/30 10:37:49;;;;;;;5.00;2.45;;;29.60;75.50;;;;;;4925403;28;20885;-77
2022/10/30 10:40:27;;;;;;;6.55;2.58;;;29.40;71.30;;;;;;4939923;28;20038;-78
2022/10/30 10:43:11;;;;;;;4.78;2.40;;;29.10;70.80;;;;;;4950182;28;20023;-78
2022/10/30 10:45:55;;;;;;;5.23;2.20;;;28.80;69.60;;;;;;4962372;28;20062;-78
2022/10/30 10:48:40;;;;;;;5.07;2.00;;;28.50;69.80;;;;;;4929412;28;20180;-78
2022/10/30 10:51:21;;;;;;;4.18;2.20;;;28.10;69.10;;;;;;4962719;28;20588;-77
2022/10/30 10:54:09;;;;;;;5.13;2.20;;;27.70;69.00;;;;;;4937743;28;20574;-77
2022/10/30 10:56:38;;;;;;;4.60;2.20;;;27.30;69.50;;;;;;4955839;28;20057;-78
2022/10/30 10:59:13;;;;;;;4.77;2.20;;;26.90;70.50;;;;;;4959743;28;20034;-78
2022/10/30 11:01:44;;;;;;;5.78;2.15;;;26.60;70.20;;;;;;4950700;28;20467;-78
2022/10/30 11:04:33;;;;;;;4.80;2.22;;;26.40;70.70;;;;;;4950170;28;20698;-78
2022/10/30 11:07:09;;;;;;;4.22;2.03;;;26.20;70.60;;;;;;4966218;28;20622;-78
2022/10/30 11:09:34;;;;;;;5.50;2.30;;;25.90;71.20;;;;;;4946637;28;20112;-77
2022/10/30 11:12:00;;;;;;;5.23;2.30;;;25.70;71.60;;;;;;4943070;28;20038;-77
2022/10/30 11:14:29;;;;;;;6.53;2.15;;;25.50;71.70;;;;;;4956177;28;20031;-78
2022/10/30 11:17:21;;;;;;;7.37;2.00;;;25.40;71.30;;;;;;4956570;28;20442;-78
2022/10/30 11:19:55;;;;;;;4.90;2.30;;;25.20;70.90;;;;;;4960771;28;20037;-78
2022/10/30 11:22:27;;;;;;;6.82;2.40;;;25.00;71.60;;;;;;4961488;28;20537;-78
2022/10/30 11:24:53;;;;;;;4.75;2.47;;;25.00;71.80;;;;;;4972466;28;20030;-77
2022/10/30 11:27:29;;;;;;;4.83;2.07;;;24.90;72.50;;;;;;4952081;28;20609;-78
2022/10/30 11:30:00;;;;;;;5.45;2.17;;;24.80;71.70;;;;;;4978070;28;20383;-78
2022/10/30 11:32:28;;;;;;;4.95;2.28;;;24.80;72.20;;;;;;4945839;28;20073;-77
2022/10/30 11:35:06;;;;;;;5.05;2.28;;;24.70;73.00;;;;;;4971493;28;20038;-77
2022/10/30 11:37:33;;;;;;;5.20;2.27;;;24.70;73.10;;;;;;4938178;28;20053;-77
2022/10/30 11:40:02;;;;;;;5.13;2.55;;;24.80;74.10;;;;;;4954356;28;20060;-77
2022/10/30 11:42:28;;;;;;;4.40;2.17;;;25.00;74.50;;;;;;4963679;28;20594;-78
2022/10/30 11:44:54;;;;;;;4.77;2.57;;;25.10;75.40;;;;;;4966296;28;20034;-78
2022/10/30 11:47:30;;;;;;;5.28;2.67;;;25.30;74.80;;;;;;4964577;28;20148;-77
2022/10/30 11:49:59;;;;;;;4.50;2.70;;;25.40;73.60;;;;;;4965793;28;20027;-77
2022/10/30 11:52:26;;;;;;;5.57;2.50;;;25.50;73.70;;;;;;4958032;28;20782;-78
2022/10/30 11:55:12;;;;;;;5.80;2.72;;;25.60;73.70;;;;;;4964058;28;20157;-77
2022/10/30 11:57:43;;;;;;;5.53;2.57;;;25.70;73.10;;;;;;4976183;28;20030;-77
2022/10/30 12:00:20;;;;;;;7.25;2.60;;;25.80;73.10;;;;;;4962916;28;20463;-77
2022/10/30 12:02:50;;;;;;;6.60;2.45;;;25.80;72.30;;;;;;4969519;28;20030;-77
2022/10/30 12:05:24;;;;;;;4.93;2.70;;;25.90;73.30;;;;;;4950703;28;20189;-77
2022/10/30 12:08:13;;;;;;;5.55;2.60;;;26.00;71.80;;;;;;4975340;28;20068;-77
2022/10/30 12:10:41;;;;;;;5.63;2.53;;;26.00;71.60;;;;;;4939560;28;20038;-78
2022/10/30 12:13:16;;;;;;;7.18;2.78;;;26.10;72.60;;;;;;4960858;28;20026;-77
2022/10/30 12:15:43;;;;;;;5.35;2.63;;;26.00;71.20;;;;;;4975990;28;20035;-77
2022/10/30 12:18:16;;;;;;;5.55;2.53;;;26.00;71.50;;;;;;4971761;28;20034;-78
2022/10/30 12:20:46;;;;;;;5.30;2.30;;;25.90;70.00;;;;;;4945460;28;20030;-78
2022/10/30 12:23:19;;;;;;;5.07;2.20;;;25.80;70.50;;;;;;4964717;28;20110;-77
2022/10/30 12:25:51;;;;;;;5.45;2.30;;;25.70;70.40;;;;;;4945389;28;26022;-77
2022/10/30 12:28:20;;;;;;;5.43;2.28;;;25.60;70.50;;;;;;4983487;28;20034;-77
2022/10/30 12:31:03;;;;;;;5.93;2.45;;;25.50;70.90;;;;;;4962894;28;20383;-78
2022/10/30 12:33:56;;;;;;;6.85;2.75;;;25.50;70.90;;;;;;4972035;28;20027;-77
2022/10/30 12:36:26;;;;;;;4.67;2.40;;;25.40;71.00;;;;;;4958457;28;20035;-77
2022/10/30 12:39:01;;;;;;;4.95;2.20;;;25.40;71.30;;;;;;4967946;28;20057;-78
2022/10/30 12:41:55;;;;;;;6.30;2.70;;;25.40;70.90;;;;;;4956286;28;20070;-77
2022/10/30 12:44:37;;;;;;;6.38;2.38;;;25.40;70.40;;;;;;4965836;28;20027;-78
2022/10/30 12:47:37;;;;;;;5.68;2.58;;;25.40;70.60;;;;;;4970086;28;20085;-78
2022/10/30 12:50:36;;;;;;;6.13;2.20;;;25.30;70.20;;;;;;4972233;28;20085;-78
2022/10/30 12:53:08;;;;;;;5.38;2.42;;;25.30;70.40;;;;;;4945519;28;20565;-79
2022/10/30 12:55:39;;;;;;;5.20;2.33;;;25.20;70.50;;;;;;4971856;28;20531;-79
2022/10/30 12:58:38;;;;;;;43.70;6.10;;;25.20;70.70;;;;;;4948320;28;20038;-78
2022/10/30 13:01:41;;;;;;;10.75;2.88;;;25.20;70.10;;;;;;4961295;28;20117;-79